sensor_id;sensor_type;location;lat;lon;timestamp;P1;durP1;ratioP1;P2;durP2;ratioP2
8986;SDS011;4529;51.360;12.474;2023-09-19T00:01:42;3.43;;;1.50;;
8986;SDS011;4529;51.360;12.474;2023-09-19T00:06:46;1.73;;;1.63;;
8986;SDS011;4529;51.360;12.474;2023-09-19T00:11:49;1.70;;;1.60;;
8986;SDS011;4529;51.360;12.474;2023-09-19T00:16:53;1.77;;;1.63;;
8986;SDS011;4529;51.360;12.474;2023-09-19T00:21:56;1.87;;;1.77;;
8986;SDS011;4529;51.360;12.474;2023-09-19T00:27:00;2.30;;;1.77;;
8986;SDS011;4529;51.360;12.474;2023-09-19T00:32:03;1.80;;;1.70;;
8986;SDS011;4529;51.360;12.474;2023-09-19T00:37:06;1.93;;;1.73;;
8986;SDS011;4529;51.360;12.474;2023-09-19T00:42:17;3.30;;;1.83;;
8986;SDS011;4529;51.360;12.474;2023-09-19T00:47:14;2.00;;;1.90;;
8986;SDS011;4529;51.360;12.474;2023-09-19T00:52:18;1.87;;;1.77;;
8986;SDS011;4529;51.360;12.474;2023-09-19T00:57:21;1.60;;;1.50;;
8986;SDS011;4529;51.360;12.474;2023-09-19T01:02:25;1.70;;;1.60;;
8986;SDS011;4529;51.360;12.474;2023-09-19T01:07:28;1.90;;;1.80;;
8986;SDS011;4529;51.360;12.474;2023-09-19T01:12:34;2.63;;;1.93;;
8986;SDS011;4529;51.360;12.474;2023-09-19T01:17:45;2.40;;;1.80;;
8986;SDS011;4529;51.360;12.474;2023-09-19T01:28:14;1.87;;;1.70;;
8986;SDS011;4529;51.360;12.474;2023-09-19T01:33:28;3.10;;;1.90;;
8986;SDS011;4529;51.360;12.474;2023-09-19T01:38:31;3.87;;;1.80;;
8986;SDS011;4529;51.360;12.474;2023-09-19T01:43:37;2.53;;;1.53;;
8986;SDS011;4529;51.360;12.474;2023-09-19T01:54:12;2.23;;;1.93;;
8986;SDS011;4529;51.360;12.474;2023-09-19T01:59:22;2.20;;;2.00;;
8986;SDS011;4529;51.360;12.474;2023-09-19T02:04:21;2.33;;;2.00;;
8986;SDS011;4529;51.360;12.474;2023-09-19T02:09:24;2.10;;;1.90;;
8986;SDS011;4529;51.360;12.474;2023-09-19T02:14:28;2.43;;;1.80;;
8986;SDS011;4529;51.360;12.474;2023-09-19T02:19:31;2.87;;;2.10;;
8986;SDS011;4529;51.360;12.474;2023-09-19T02:24:35;1.90;;;1.70;;
8986;SDS011;4529;51.360;12.474;2023-09-19T02:29:38;2.03;;;1.93;;
8986;SDS011;4529;51.360;12.474;2023-09-19T02:34:42;2.33;;;2.13;;
8986;SDS011;4529;51.360;12.474;2023-09-19T02:39:45;1.80;;;1.70;;
8986;SDS011;4529;51.360;12.474;2023-09-19T02:44:49;2.43;;;1.80;;
8986;SDS011;4529;51.360;12.474;2023-09-19T02:49:53;1.73;;;1.63;;
8986;SDS011;4529;51.360;12.474;2023-09-19T02:54:57;1.70;;;1.60;;
8986;SDS011;4529;51.360;12.474;2023-09-19T03:00:01;1.63;;;1.50;;
8986;SDS011;4529;51.360;12.474;2023-09-19T03:05:05;1.67;;;1.53;;
8986;SDS011;4529;51.360;12.474;2023-09-19T03:10:09;1.70;;;1.60;;
8986;SDS011;4529;51.360;12.474;2023-09-19T03:15:13;1.70;;;1.60;;
8986;SDS011;4529;51.360;12.474;2023-09-19T03:20:16;2.47;;;1.70;;
8986;SDS011;4529;51.360;12.474;2023-09-19T03:25:20;1.70;;;1.60;;
8986;SDS011;4529;51.360;12.474;2023-09-19T03:30:24;1.70;;;1.60;;
8986;SDS011;4529;51.360;12.474;2023-09-19T03:35:28;1.70;;;1.60;;
8986;SDS011;4529;51.360;12.474;2023-09-19T03:40:32;1.80;;;1.47;;
8986;SDS011;4529;51.360;12.474;2023-09-19T03:45:36;1.60;;;1.50;;
8986;SDS011;4529;51.360;12.474;2023-09-19T03:50:40;1.87;;;1.60;;
8986;SDS011;4529;51.360;12.474;2023-09-19T03:55:45;1.50;;;1.40;;
8986;SDS011;4529;51.360;12.474;2023-09-19T04:00:48;5.03;;;1.53;;
8986;SDS011;4529;51.360;12.474;2023-09-19T04:05:51;1.50;;;1.40;;
8986;SDS011;4529;51.360;12.474;2023-09-19T04:10:55;2.33;;;1.40;;
8986;SDS011;4529;51.360;12.474;2023-09-19T04:15:58;1.73;;;1.40;;
8986;SDS011;4529;51.360;12.474;2023-09-19T04:21:02;1.73;;;1.60;;
8986;SDS011;4529;51.360;12.474;2023-09-19T04:26:05;1.97;;;1.50;;
8986;SDS011;4529;51.360;12.474;2023-09-19T04:31:09;2.53;;;1.70;;
8986;SDS011;4529;51.360;12.474;2023-09-19T04:36:12;2.53;;;1.50;;
8986;SDS011;4529;51.360;12.474;2023-09-19T04:41:16;2.10;;;1.57;;
8986;SDS011;4529;51.360;12.474;2023-09-19T04:46:20;2.90;;;1.60;;
8986;SDS011;4529;51.360;12.474;2023-09-19T04:51:24;1.63;;;1.50;;
8986;SDS011;4529;51.360;12.474;2023-09-19T04:56:27;1.87;;;1.53;;
8986;SDS011;4529;51.360;12.474;2023-09-19T05:01:32;2.57;;;1.60;;
8986;SDS011;4529;51.360;12.474;2023-09-19T05:06:36;1.60;;;1.50;;
8986;SDS011;4529;51.360;12.474;2023-09-19T05:11:40;2.70;;;1.50;;
8986;SDS011;4529;51.360;12.474;2023-09-19T05:16:44;1.90;;;1.50;;
8986;SDS011;4529;51.360;12.474;2023-09-19T05:21:48;1.50;;;1.40;;
8986;SDS011;4529;51.360;12.474;2023-09-19T05:26:51;1.40;;;1.30;;
8986;SDS011;4529;51.360;12.474;2023-09-19T05:31:55;2.33;;;1.50;;
8986;SDS011;4529;51.360;12.474;2023-09-19T05:36:58;1.70;;;1.60;;
8986;SDS011;4529;51.360;12.474;2023-09-19T05:42:02;2.63;;;1.53;;
8986;SDS011;4529;51.360;12.474;2023-09-19T05:47:05;1.50;;;1.40;;
8986;SDS011;4529;51.360;12.474;2023-09-19T05:52:09;1.90;;;1.60;;
8986;SDS011;4529;51.360;12.474;2023-09-19T05:57:12;1.50;;;1.40;;
8986;SDS011;4529;51.360;12.474;2023-09-19T06:02:16;2.27;;;1.43;;
8986;SDS011;4529;51.360;12.474;2023-09-19T06:07:19;2.03;;;1.50;;
8986;SDS011;4529;51.360;12.474;2023-09-19T06:12:23;1.83;;;1.47;;
8986;SDS011;4529;51.360;12.474;2023-09-19T06:17:27;3.87;;;1.27;;
8986;SDS011;4529;51.360;12.474;2023-09-19T06:22:31;3.17;;;1.47;;
8986;SDS011;4529;51.360;12.474;2023-09-19T06:27:35;2.20;;;1.50;;
8986;SDS011;4529;51.360;12.474;2023-09-19T06:32:39;1.63;;;1.53;;
8986;SDS011;4529;51.360;12.474;2023-09-19T06:37:43;1.60;;;1.50;;
8986;SDS011;4529;51.360;12.474;2023-09-19T06:42:49;4.10;;;1.73;;
8986;SDS011;4529;51.360;12.474;2023-09-19T06:47:52;1.70;;;1.60;;
8986;SDS011;4529;51.360;12.474;2023-09-19T06:52:55;1.60;;;1.50;;
8986;SDS011;4529;51.360;12.474;2023-09-19T06:57:59;2.60;;;1.43;;
8986;SDS011;4529;51.360;12.474;2023-09-19T07:03:05;1.73;;;1.63;;
8986;SDS011;4529;51.360;12.474;2023-09-19T07:08:10;2.70;;;1.40;;
8986;SDS011;4529;51.360;12.474;2023-09-19T07:13:14;1.73;;;1.63;;
8986;SDS011;4529;51.360;12.474;2023-09-19T07:18:17;3.40;;;1.60;;
8986;SDS011;4529;51.360;12.474;2023-09-19T07:23:21;2.87;;;1.33;;
8986;SDS011;4529;51.360;12.474;2023-09-19T07:28:24;2.03;;;1.50;;
8986;SDS011;4529;51.360;12.474;2023-09-19T07:33:27;1.73;;;1.40;;
8986;SDS011;4529;51.360;12.474;2023-09-19T07:38:31;1.60;;;1.50;;
8986;SDS011;4529;51.360;12.474;2023-09-19T07:43:37;1.63;;;1.13;;
8986;SDS011;4529;51.360;12.474;2023-09-19T07:48:38;1.90;;;1.60;;
8986;SDS011;4529;51.360;12.474;2023-09-19T07:53:42;4.10;;;2.00;;
8986;SDS011;4529;51.360;12.474;2023-09-19T07:58:46;1.50;;;1.40;;
8986;SDS011;4529;51.360;12.474;2023-09-19T08:03:51;1.60;;;1.50;;
8986;SDS011;4529;51.360;12.474;2023-09-19T08:08:55;1.90;;;1.40;;
8986;SDS011;4529;51.360;12.474;2023-09-19T08:13:59;3.17;;;1.43;;
8986;SDS011;4529;51.360;12.474;2023-09-19T08:19:03;1.60;;;1.30;;
8986;SDS011;4529;51.360;12.474;2023-09-19T08:24:07;2.00;;;1.20;;
8986;SDS011;4529;51.360;12.474;2023-09-19T08:29:11;2.43;;;1.40;;
8986;SDS011;4529;51.360;12.474;2023-09-19T08:34:15;2.27;;;1.40;;
8986;SDS011;4529;51.360;12.474;2023-09-19T08:39:18;2.07;;;1.60;;
8986;SDS011;4529;51.360;12.474;2023-09-19T08:44:22;1.40;;;1.30;;
8986;SDS011;4529;51.360;12.474;2023-09-19T08:54:58;1.57;;;1.30;;
8986;SDS011;4529;51.360;12.474;2023-09-19T09:00:00;2.50;;;1.40;;
8986;SDS011;4529;51.360;12.474;2023-09-19T09:05:04;1.53;;;1.37;;
8986;SDS011;4529;51.360;12.474;2023-09-19T09:10:07;3.60;;;1.37;;
8986;SDS011;4529;51.360;12.474;2023-09-19T09:15:10;2.50;;;1.40;;
8986;SDS011;4529;51.360;12.474;2023-09-19T09:20:14;2.70;;;1.60;;
8986;SDS011;4529;51.360;12.474;2023-09-19T09:25:17;1.97;;;1.20;;
8986;SDS011;4529;51.360;12.474;2023-09-19T09:30:36;1.50;;;1.40;;
8986;SDS011;4529;51.360;12.474;2023-09-19T09:35:49;2.20;;;1.60;;
8986;SDS011;4529;51.360;12.474;2023-09-19T09:40:58;1.70;;;1.33;;
8986;SDS011;4529;51.360;12.474;2023-09-19T09:51:14;1.63;;;1.27;;
8986;SDS011;4529;51.360;12.474;2023-09-19T09:56:17;1.87;;;1.37;;
8986;SDS011;4529;51.360;12.474;2023-09-19T10:01:21;2.47;;;1.50;;
8986;SDS011;4529;51.360;12.474;2023-09-19T10:06:24;2.07;;;1.60;;
8986;SDS011;4529;51.360;12.474;2023-09-19T10:11:28;2.23;;;1.60;;
8986;SDS011;4529;51.360;12.474;2023-09-19T10:16:31;2.77;;;1.67;;
8986;SDS011;4529;51.360;12.474;2023-09-19T10:21:36;2.13;;;1.60;;
8986;SDS011;4529;51.360;12.474;2023-09-19T10:26:38;1.53;;;1.40;;
8986;SDS011;4529;51.360;12.474;2023-09-19T10:31:42;1.57;;;1.40;;
8986;SDS011;4529;51.360;12.474;2023-09-19T10:36:45;2.70;;;1.50;;
8986;SDS011;4529;51.360;12.474;2023-09-19T10:41:53;1.90;;;1.60;;
8986;SDS011;4529;51.360;12.474;2023-09-19T10:46:55;2.93;;;1.67;;
8986;SDS011;4529;51.360;12.474;2023-09-19T10:51:59;2.53;;;1.57;;
8986;SDS011;4529;51.360;12.474;2023-09-19T10:57:02;2.40;;;1.50;;
8986;SDS011;4529;51.360;12.474;2023-09-19T11:02:17;1.83;;;1.50;;
8986;SDS011;4529;51.360;12.474;2023-09-19T11:07:21;2.47;;;1.50;;
8986;SDS011;4529;51.360;12.474;2023-09-19T11:33:18;1.43;;;1.30;;
8986;SDS011;4529;51.360;12.474;2023-09-19T11:43:48;2.80;;;1.80;;
8986;SDS011;4529;51.360;12.474;2023-09-19T11:48:51;1.73;;;1.57;;
8986;SDS011;4529;51.360;12.474;2023-09-19T11:53:55;2.93;;;1.70;;
8986;SDS011;4529;51.360;12.474;2023-09-19T11:58:58;1.70;;;1.60;;
8986;SDS011;4529;51.360;12.474;2023-09-19T12:04:02;2.33;;;1.60;;
8986;SDS011;4529;51.360;12.474;2023-09-19T12:09:05;3.00;;;1.70;;
8986;SDS011;4529;51.360;12.474;2023-09-19T12:14:09;2.53;;;1.77;;
8986;SDS011;4529;51.360;12.474;2023-09-19T12:19:19;2.03;;;1.70;;
8986;SDS011;4529;51.360;12.474;2023-09-19T12:24:23;2.37;;;1.70;;
8986;SDS011;4529;51.360;12.474;2023-09-19T12:29:26;1.77;;;1.67;;
8986;SDS011;4529;51.360;12.474;2023-09-19T12:34:33;1.87;;;1.67;;
8986;SDS011;4529;51.360;12.474;2023-09-19T12:39:37;3.13;;;1.70;;
8986;SDS011;4529;51.360;12.474;2023-09-19T12:44:47;2.47;;;1.60;;
8986;SDS011;4529;51.360;12.474;2023-09-19T12:55:28;4.97;;;2.00;;
8986;SDS011;4529;51.360;12.474;2023-09-19T13:00:33;3.60;;;2.13;;
8986;SDS011;4529;51.360;12.474;2023-09-19T13:05:49;2.50;;;2.10;;
8986;SDS011;4529;51.360;12.474;2023-09-19T13:16:13;3.00;;;2.50;;
8986;SDS011;4529;51.360;12.474;2023-09-19T13:21:17;3.33;;;2.17;;
8986;SDS011;4529;51.360;12.474;2023-09-19T13:26:20;3.00;;;2.07;;
8986;SDS011;4529;51.360;12.474;2023-09-19T13:31:23;2.30;;;2.03;;
8986;SDS011;4529;51.360;12.474;2023-09-19T13:36:27;3.23;;;2.20;;
8986;SDS011;4529;51.360;12.474;2023-09-19T13:41:30;3.73;;;2.20;;
8986;SDS011;4529;51.360;12.474;2023-09-19T13:46:34;3.70;;;2.30;;
8986;SDS011;4529;51.360;12.474;2023-09-19T13:51:37;2.97;;;2.10;;
8986;SDS011;4529;51.360;12.474;2023-09-19T13:56:41;2.40;;;2.10;;
8986;SDS011;4529;51.360;12.474;2023-09-19T14:01:44;3.63;;;2.47;;
8986;SDS011;4529;51.360;12.474;2023-09-19T14:06:48;4.30;;;2.33;;
8986;SDS011;4529;51.360;12.474;2023-09-19T14:11:51;3.40;;;2.17;;
8986;SDS011;4529;51.360;12.474;2023-09-19T14:16:55;2.30;;;2.10;;
8986;SDS011;4529;51.360;12.474;2023-09-19T14:21:58;2.93;;;2.20;;
8986;SDS011;4529;51.360;12.474;2023-09-19T14:27:02;2.30;;;2.10;;
8986;SDS011;4529;51.360;12.474;2023-09-19T14:32:06;3.20;;;2.40;;
8986;SDS011;4529;51.360;12.474;2023-09-19T14:37:09;2.60;;;2.40;;
8986;SDS011;4529;51.360;12.474;2023-09-19T14:42:13;2.97;;;2.23;;
8986;SDS011;4529;51.360;12.474;2023-09-19T14:47:16;3.57;;;2.43;;
8986;SDS011;4529;51.360;12.474;2023-09-19T14:52:20;3.60;;;2.30;;
8986;SDS011;4529;51.360;12.474;2023-09-19T14:57:23;4.17;;;2.37;;
8986;SDS011;4529;51.360;12.474;2023-09-19T15:02:27;3.13;;;2.33;;
8986;SDS011;4529;51.360;12.474;2023-09-19T15:07:31;2.67;;;2.40;;
8986;SDS011;4529;51.360;12.474;2023-09-19T15:12:36;2.90;;;2.60;;
8986;SDS011;4529;51.360;12.474;2023-09-19T15:17:39;2.70;;;2.40;;
8986;SDS011;4529;51.360;12.474;2023-09-19T15:22:43;2.77;;;2.50;;
8986;SDS011;4529;51.360;12.474;2023-09-19T15:27:47;3.30;;;2.43;;
8986;SDS011;4529;51.360;12.474;2023-09-19T15:32:51;3.03;;;2.57;;
8986;SDS011;4529;51.360;12.474;2023-09-19T15:37:56;2.93;;;2.40;;
8986;SDS011;4529;51.360;12.474;2023-09-19T15:43:00;5.10;;;2.53;;
8986;SDS011;4529;51.360;12.474;2023-09-19T15:48:04;3.07;;;2.57;;
8986;SDS011;4529;51.360;12.474;2023-09-19T15:53:08;4.50;;;2.83;;
8986;SDS011;4529;51.360;12.474;2023-09-19T15:58:12;5.03;;;2.60;;
8986;SDS011;4529;51.360;12.474;2023-09-19T16:03:16;2.87;;;2.37;;
8986;SDS011;4529;51.360;12.474;2023-09-19T16:08:20;2.60;;;2.23;;
8986;SDS011;4529;51.360;12.474;2023-09-19T16:13:24;3.50;;;2.40;;
8986;SDS011;4529;51.360;12.474;2023-09-19T16:18:29;2.57;;;2.27;;
8986;SDS011;4529;51.360;12.474;2023-09-19T16:23:33;2.50;;;2.30;;
8986;SDS011;4529;51.360;12.474;2023-09-19T16:28:37;2.50;;;2.30;;
8986;SDS011;4529;51.360;12.474;2023-09-19T16:33:42;5.40;;;2.43;;
8986;SDS011;4529;51.360;12.474;2023-09-19T16:38:46;3.07;;;2.40;;
8986;SDS011;4529;51.360;12.474;2023-09-19T16:43:49;3.37;;;2.60;;
8986;SDS011;4529;51.360;12.474;2023-09-19T16:48:53;2.87;;;2.33;;
8986;SDS011;4529;51.360;12.474;2023-09-19T16:53:58;3.90;;;2.57;;
8986;SDS011;4529;51.360;12.474;2023-09-19T16:59:01;3.93;;;2.30;;
8986;SDS011;4529;51.360;12.474;2023-09-19T17:04:05;4.40;;;2.50;;
8986;SDS011;4529;51.360;12.474;2023-09-19T17:09:08;2.60;;;2.40;;
8986;SDS011;4529;51.360;12.474;2023-09-19T17:14:11;3.53;;;2.50;;
8986;SDS011;4529;51.360;12.474;2023-09-19T17:19:15;2.53;;;2.30;;
8986;SDS011;4529;51.360;12.474;2023-09-19T17:24:18;4.47;;;2.73;;
8986;SDS011;4529;51.360;12.474;2023-09-19T17:29:22;5.10;;;2.73;;
8986;SDS011;4529;51.360;12.474;2023-09-19T17:34:25;5.23;;;2.50;;
8986;SDS011;4529;51.360;12.474;2023-09-19T17:39:29;4.97;;;2.60;;
8986;SDS011;4529;51.360;12.474;2023-09-19T17:44:32;3.03;;;2.40;;
8986;SDS011;4529;51.360;12.474;2023-09-19T17:49:36;3.63;;;2.60;;
8986;SDS011;4529;51.360;12.474;2023-09-19T17:54:39;4.37;;;2.60;;
8986;SDS011;4529;51.360;12.474;2023-09-19T17:59:43;3.00;;;2.70;;
8986;SDS011;4529;51.360;12.474;2023-09-19T18:04:46;2.67;;;2.40;;
8986;SDS011;4529;51.360;12.474;2023-09-19T18:09:50;2.47;;;2.27;;
8986;SDS011;4529;51.360;12.474;2023-09-19T18:14:54;4.23;;;2.60;;
8986;SDS011;4529;51.360;12.474;2023-09-19T18:19:58;3.77;;;2.67;;
8986;SDS011;4529;51.360;12.474;2023-09-19T18:25:02;3.40;;;2.63;;
8986;SDS011;4529;51.360;12.474;2023-09-19T18:30:06;3.00;;;2.27;;
8986;SDS011;4529;51.360;12.474;2023-09-19T18:35:09;4.43;;;2.40;;
8986;SDS011;4529;51.360;12.474;2023-09-19T18:40:13;3.13;;;2.70;;
8986;SDS011;4529;51.360;12.474;2023-09-19T18:45:16;2.53;;;2.30;;
8986;SDS011;4529;51.360;12.474;2023-09-19T18:50:19;2.57;;;2.30;;
8986;SDS011;4529;51.360;12.474;2023-09-19T18:55:23;6.17;;;2.80;;
8986;SDS011;4529;51.360;12.474;2023-09-19T19:00:26;4.03;;;2.70;;
8986;SDS011;4529;51.360;12.474;2023-09-19T19:05:32;2.37;;;2.17;;
8986;SDS011;4529;51.360;12.474;2023-09-19T19:10:40;3.87;;;2.50;;
8986;SDS011;4529;51.360;12.474;2023-09-19T19:15:43;3.10;;;2.27;;
8986;SDS011;4529;51.360;12.474;2023-09-19T19:20:46;3.60;;;2.10;;
8986;SDS011;4529;51.360;12.474;2023-09-19T19:25:50;4.33;;;2.17;;
8986;SDS011;4529;51.360;12.474;2023-09-19T19:30:53;2.33;;;2.10;;
8986;SDS011;4529;51.360;12.474;2023-09-19T19:36:03;5.43;;;2.17;;
8986;SDS011;4529;51.360;12.474;2023-09-19T19:41:09;3.20;;;2.23;;
8986;SDS011;4529;51.360;12.474;2023-09-19T19:46:12;2.57;;;2.10;;
8986;SDS011;4529;51.360;12.474;2023-09-19T19:51:16;2.83;;;2.30;;
8986;SDS011;4529;51.360;12.474;2023-09-19T19:56:20;2.97;;;2.20;;
8986;SDS011;4529;51.360;12.474;2023-09-19T20:01:23;3.57;;;2.30;;
8986;SDS011;4529;51.360;12.474;2023-09-19T20:06:26;3.83;;;2.30;;
8986;SDS011;4529;51.360;12.474;2023-09-19T20:11:30;2.53;;;2.20;;
8986;SDS011;4529;51.360;12.474;2023-09-19T20:16:34;3.93;;;2.20;;
8986;SDS011;4529;51.360;12.474;2023-09-19T20:21:38;3.40;;;2.50;;
8986;SDS011;4529;51.360;12.474;2023-09-19T20:26:42;3.20;;;2.30;;
8986;SDS011;4529;51.360;12.474;2023-09-19T20:31:46;3.80;;;2.40;;
8986;SDS011;4529;51.360;12.474;2023-09-19T20:36:50;3.93;;;2.20;;
8986;SDS011;4529;51.360;12.474;2023-09-19T20:41:55;4.33;;;2.03;;
8986;SDS011;4529;51.360;12.474;2023-09-19T20:46:59;2.30;;;2.10;;
8986;SDS011;4529;51.360;12.474;2023-09-19T20:52:04;3.87;;;2.20;;
8986;SDS011;4529;51.360;12.474;2023-09-19T20:57:07;3.30;;;2.33;;
8986;SDS011;4529;51.360;12.474;2023-09-19T21:02:10;3.17;;;2.20;;
8986;SDS011;4529;51.360;12.474;2023-09-19T21:07:14;2.43;;;2.10;;
8986;SDS011;4529;51.360;12.474;2023-09-19T21:12:18;3.50;;;2.20;;
8986;SDS011;4529;51.360;12.474;2023-09-19T21:17:22;3.57;;;2.53;;
8986;SDS011;4529;51.360;12.474;2023-09-19T21:22:25;4.83;;;2.20;;
8986;SDS011;4529;51.360;12.474;2023-09-19T21:27:28;4.23;;;2.37;;
8986;SDS011;4529;51.360;12.474;2023-09-19T21:32:32;3.10;;;2.10;;
8986;SDS011;4529;51.360;12.474;2023-09-19T21:37:35;2.73;;;2.20;;
8986;SDS011;4529;51.360;12.474;2023-09-19T21:42:39;2.83;;;2.30;;
8986;SDS011;4529;51.360;12.474;2023-09-19T21:47:42;2.83;;;2.30;;
8986;SDS011;4529;51.360;12.474;2023-09-19T21:52:46;2.43;;;2.10;;
8986;SDS011;4529;51.360;12.474;2023-09-19T21:57:49;3.07;;;2.00;;
8986;SDS011;4529;51.360;12.474;2023-09-19T22:02:53;2.97;;;2.10;;
8986;SDS011;4529;51.360;12.474;2023-09-19T22:07:57;3.53;;;2.20;;
8986;SDS011;4529;51.360;12.474;2023-09-19T22:13:01;2.40;;;2.20;;
8986;SDS011;4529;51.360;12.474;2023-09-19T22:18:05;2.50;;;2.30;;
8986;SDS011;4529;51.360;12.474;2023-09-19T22:23:09;2.77;;;2.30;;
8986;SDS011;4529;51.360;12.474;2023-09-19T22:28:13;2.30;;;2.10;;
8986;SDS011;4529;51.360;12.474;2023-09-19T22:33:17;2.93;;;2.13;;
8986;SDS011;4529;51.360;12.474;2023-09-19T22:38:22;3.33;;;2.40;;
8986;SDS011;4529;51.360;12.474;2023-09-19T22:43:26;2.43;;;2.20;;
8986;SDS011;4529;51.360;12.474;2023-09-19T22:48:29;3.70;;;2.40;;
8986;SDS011;4529;51.360;12.474;2023-09-19T22:53:33;2.63;;;2.10;;
8986;SDS011;4529;51.360;12.474;2023-09-19T22:58:37;2.27;;;2.07;;
8986;SDS011;4529;51.360;12.474;2023-09-19T23:03:42;2.90;;;2.00;;
8986;SDS011;4529;51.360;12.474;2023-09-19T23:08:46;1.90;;;1.80;;
8986;SDS011;4529;51.360;12.474;2023-09-19T23:13:55;1.90;;;1.77;;
8986;SDS011;4529;51.360;12.474;2023-09-19T23:18:59;2.47;;;2.00;;
8986;SDS011;4529;51.360;12.474;2023-09-19T23:24:02;2.93;;;2.10;;
8986;SDS011;4529;51.360;12.474;2023-09-19T23:29:06;2.83;;;2.17;;
8986;SDS011;4529;51.360;12.474;2023-09-19T23:34:11;2.67;;;2.17;;
8986;SDS011;4529;51.360;12.474;2023-09-19T23:39:14;3.57;;;2.20;;
8986;SDS011;4529;51.360;12.474;2023-09-19T23:44:19;2.73;;;2.20;;
8986;SDS011;4529;51.360;12.474;2023-09-19T23:49:23;1.97;;;1.83;;
8986;SDS011;4529;51.360;12.474;2023-09-19T23:54:27;2.30;;;2.20;;
8986;SDS011;4529;51.360;12.474;2023-09-19T23:59:31;2.53;;;2.20;;
